createdAt,value
2018-08-28T00:02:56.225Z,23.56
2018-08-28T00:07:59.649Z,23.53
2018-08-28T00:13:03.136Z,23.56
2018-08-28T00:18:06.714Z,23.53
2018-08-28T00:23:10.189Z,23.53
2018-08-28T00:28:13.715Z,23.54
2018-08-28T00:33:17.237Z,23.52
2018-08-28T00:38:20.863Z,23.54
2018-08-28T00:43:24.302Z,23.49
2018-08-28T00:48:28.004Z,23.50
2018-08-28T00:53:31.470Z,23.49
2018-08-28T00:58:34.889Z,23.49
2018-08-28T01:03:38.588Z,23.47
2018-08-28T01:08:42.758Z,23.42
2018-08-28T01:13:46.410Z,23.46
2018-08-28T01:18:49.994Z,23.41
2018-08-28T01:23:54.294Z,23.43
2018-08-28T01:28:57.999Z,23.40
2018-08-28T01:34:01.532Z,23.39
2018-08-28T01:39:06.235Z,23.40
2018-08-28T01:44:09.720Z,23.41
2018-08-28T01:49:13.158Z,23.39
2018-08-28T01:54:16.693Z,23.38
2018-08-28T01:59:20.173Z,23.38
2018-08-28T02:04:24.003Z,23.37
2018-08-28T02:09:27.725Z,23.35
2018-08-28T02:14:31.150Z,23.34
2018-08-28T02:19:34.593Z,23.32
2018-08-28T02:24:38.321Z,23.31
2018-08-28T02:29:41.799Z,23.30
2018-08-28T02:34:45.487Z,23.33
2018-08-28T02:39:48.933Z,23.30
2018-08-28T02:44:52.953Z,23.30
2018-08-28T02:49:56.428Z,23.32
2018-08-28T02:54:59.953Z,23.30
2018-08-28T03:00:03.698Z,23.27
2018-08-28T03:05:07.689Z,23.33
2018-08-28T03:10:11.169Z,23.28
2018-08-28T03:15:14.831Z,23.29
2018-08-28T03:20:18.348Z,23.29
2018-08-28T03:25:21.807Z,23.28
2018-08-28T03:30:25.260Z,23.29
2018-08-28T03:35:28.708Z,23.29
2018-08-28T03:40:32.147Z,23.27
2018-08-28T03:45:35.855Z,23.30
2018-08-28T03:50:39.301Z,23.40
2018-08-28T03:55:42.740Z,23.42
2018-08-28T04:00:46.385Z,23.43
2018-08-28T04:05:49.883Z,23.44
2018-08-28T04:10:53.694Z,23.43
2018-08-28T04:15:57.435Z,23.44
2018-08-28T04:21:01.213Z,23.42
2018-08-28T04:26:04.702Z,23.41
2018-08-28T04:31:08.178Z,23.41
2018-08-28T04:36:11.820Z,23.45
2018-08-28T04:41:15.260Z,23.44
2018-08-28T04:46:18.790Z,23.46
2018-08-28T04:51:22.366Z,23.46
2018-08-28T04:56:25.963Z,23.47
2018-08-28T05:01:29.413Z,23.49
2018-08-28T05:06:33.002Z,23.49
2018-08-28T05:11:36.635Z,23.48
2018-08-28T05:16:40.021Z,23.50
2018-08-28T05:21:43.654Z,23.47
2018-08-28T05:26:47.142Z,23.49
2018-08-28T05:31:51.451Z,23.52
2018-08-28T05:36:54.941Z,23.51
2018-08-28T05:41:58.394Z,23.52
2018-08-28T05:47:02.253Z,23.52
2018-08-28T05:52:05.842Z,23.52
2018-08-28T05:57:09.285Z,23.56
2018-08-28T06:02:12.748Z,23.54
2018-08-28T06:07:16.205Z,23.53
2018-08-28T06:12:19.634Z,23.56
2018-08-28T06:17:23.094Z,23.57
2018-08-28T06:22:26.991Z,23.59
2018-08-28T06:27:30.702Z,23.59
2018-08-28T06:32:34.175Z,23.59
2018-08-28T06:37:38.102Z,23.61
2018-08-28T06:42:41.611Z,23.62
2018-08-28T06:47:45.019Z,23.59
2018-08-28T06:52:48.489Z,23.64
2018-08-28T06:57:52.101Z,23.69
2018-08-28T07:02:55.633Z,23.70
2018-08-28T07:07:59.424Z,23.70
2018-08-28T07:13:02.843Z,23.71
2018-08-28T07:18:06.747Z,23.38
2018-08-28T07:23:10.445Z,23.25
2018-08-28T07:28:13.968Z,22.99
2018-08-28T07:33:17.913Z,23.27
2018-08-28T07:38:21.618Z,23.17
2018-08-28T07:43:25.154Z,23.30
2018-08-28T07:48:28.735Z,23.26
2018-08-28T07:53:32.205Z,23.28
2018-08-28T07:58:35.767Z,23.35
2018-08-28T08:03:39.317Z,23.29
2018-08-28T08:08:43.151Z,23.28
2018-08-28T08:13:46.604Z,23.22
2018-08-28T08:18:50.076Z,23.19
2018-08-28T08:23:53.546Z,23.28
2018-08-28T08:28:57.192Z,23.32
2018-08-28T08:34:00.679Z,23.18
2018-08-28T08:39:05.173Z,23.09
2018-08-28T08:44:08.951Z,23.07
2018-08-28T08:49:12.565Z,23.28
2018-08-28T08:54:16.187Z,23.30
2018-08-28T08:59:19.790Z,23.20
2018-08-28T09:04:23.274Z,23.07
2018-08-28T09:09:26.717Z,23.11
2018-08-28T09:14:30.249Z,23.30
2018-08-28T09:19:33.668Z,23.22
2018-08-28T09:24:37.294Z,23.25
2018-08-28T09:29:40.990Z,23.18
2018-08-28T09:34:44.471Z,23.18
2018-08-28T09:39:47.970Z,23.28
2018-08-28T09:44:51.532Z,23.28
2018-08-28T09:49:55.097Z,23.43
2018-08-28T09:54:58.541Z,23.49
2018-08-28T10:00:02.146Z,23.45
2018-08-28T10:05:06.331Z,23.38
2018-08-28T10:10:09.950Z,23.35
2018-08-28T10:15:13.535Z,23.34
2018-08-28T10:20:17.022Z,23.40
2018-08-28T10:30:23.563Z,23.61
2018-08-28T10:35:27.046Z,23.67
2018-08-28T10:40:30.710Z,23.62
2018-08-28T10:45:34.202Z,23.63
2018-08-28T10:50:37.769Z,23.73
2018-08-28T10:55:41.253Z,23.73
2018-08-28T11:00:44.770Z,23.78
2018-08-28T11:05:48.284Z,23.76
2018-08-28T11:10:51.816Z,23.67
2018-08-28T11:15:55.442Z,23.75
2018-08-28T11:20:59.159Z,23.78
2018-08-28T11:26:02.582Z,23.72
2018-08-28T11:31:06.056Z,23.78
2018-08-28T11:36:09.570Z,23.75
2018-08-28T11:41:13.090Z,23.61
2018-08-28T11:46:16.545Z,23.61
2018-08-28T11:51:20.032Z,23.59
2018-08-28T11:56:23.594Z,23.58
2018-08-28T12:01:27.114Z,23.63
2018-08-28T12:06:30.610Z,23.72
2018-08-28T12:11:34.166Z,23.67
2018-08-28T12:16:37.894Z,23.65
2018-08-28T12:21:41.378Z,23.70
2018-08-28T12:26:44.909Z,23.71
2018-08-28T12:31:48.543Z,23.78
2018-08-28T12:36:52.053Z,23.83
2018-08-28T12:41:55.460Z,23.79
2018-08-28T12:46:58.909Z,23.77
2018-08-28T12:52:02.650Z,23.84
2018-08-28T12:57:06.453Z,23.80
2018-08-28T13:02:10.103Z,23.89
2018-08-28T13:07:13.596Z,23.82
2018-08-28T13:12:17.081Z,23.86
2018-08-28T13:17:20.601Z,23.77
2018-08-28T13:22:24.069Z,23.76
2018-08-28T13:27:27.534Z,23.84
2018-08-28T13:32:30.966Z,23.90
2018-08-28T13:37:34.473Z,23.97
2018-08-28T13:42:38.025Z,24.02
2018-08-28T13:47:41.445Z,24.01
2018-08-28T13:52:44.882Z,23.96
2018-08-28T13:57:48.534Z,24.04
2018-08-28T14:02:52.035Z,24.05
2018-08-28T14:07:55.550Z,24.09
2018-08-28T14:12:59.417Z,24.12
2018-08-28T14:18:03.662Z,24.13
2018-08-28T14:23:07.587Z,24.15
2018-08-28T14:28:11.768Z,24.16
2018-08-28T14:33:15.737Z,24.17
2018-08-28T14:38:20.354Z,24.18
2018-08-28T14:43:23.968Z,24.20
2018-08-28T14:48:28.306Z,24.21
2018-08-28T14:53:31.803Z,24.21
2018-08-28T14:58:35.335Z,24.27
2018-08-28T15:03:38.782Z,24.25
2018-08-28T15:08:42.248Z,24.28
2018-08-28T15:13:46.223Z,24.29
2018-08-28T15:18:49.997Z,24.27
2018-08-28T15:23:53.478Z,24.32
2018-08-28T15:28:56.944Z,24.32
2018-08-28T15:34:00.425Z,24.33
2018-08-28T15:39:04.724Z,24.33
2018-08-28T15:44:08.199Z,24.34
2018-08-28T15:49:11.637Z,24.35
2018-08-28T15:54:15.273Z,24.36
2018-08-28T15:59:19.384Z,24.28
2018-08-28T16:04:23.028Z,24.32
2018-08-28T16:09:26.625Z,24.37
2018-08-28T16:14:30.806Z,24.37
2018-08-28T16:19:34.743Z,24.38
2018-08-28T16:24:38.258Z,24.40
2018-08-28T16:29:41.736Z,24.40
2018-08-28T16:34:45.662Z,24.41
2018-08-28T16:39:49.173Z,24.39
2018-08-28T16:44:53.696Z,24.38
2018-08-28T16:49:57.252Z,24.38
2018-08-28T16:55:00.975Z,24.40
2018-08-28T17:00:04.748Z,24.29
2018-08-28T17:05:08.706Z,24.14
2018-08-28T17:10:12.689Z,24.10
2018-08-28T17:15:16.474Z,24.26
2018-08-28T17:20:19.918Z,24.13
2018-08-28T17:25:23.422Z,24.09
2018-08-28T17:30:27.505Z,24.11
2018-08-28T17:35:31.402Z,24.02
2018-08-28T17:40:36.100Z,24.06
2018-08-28T17:45:40.190Z,24.11
2018-08-28T17:50:43.946Z,24.20
2018-08-28T17:55:48.177Z,24.20
2018-08-28T18:00:52.204Z,24.21
2018-08-28T18:05:56.437Z,24.12
2018-08-28T18:11:00.260Z,24.09
2018-08-28T18:16:03.943Z,23.95
2018-08-28T18:21:07.437Z,23.99
2018-08-28T18:26:11.030Z,24.02
2018-08-28T18:31:14.725Z,24.05
2018-08-28T18:36:18.267Z,24.02
2018-08-28T18:41:22.118Z,24.12
2018-08-28T18:46:25.559Z,24.11
2018-08-28T18:51:29.007Z,24.13
2018-08-28T18:56:33.558Z,24.17
2018-08-28T19:01:37.066Z,24.16
2018-08-28T19:06:40.772Z,24.14
2018-08-28T19:11:44.477Z,24.12
2018-08-28T19:16:47.999Z,24.15
2018-08-28T19:21:51.459Z,24.11
2018-08-28T19:26:55.201Z,24.10
2018-08-28T19:31:58.956Z,24.09
2018-08-28T19:37:02.445Z,24.11
2018-08-28T19:42:06.199Z,24.12
2018-08-28T19:47:10.089Z,24.09
2018-08-28T19:52:13.699Z,24.05
2018-08-28T19:57:18.272Z,24.05
2018-08-28T20:02:21.994Z,24.08
2018-08-28T20:07:25.516Z,24.09
2018-08-28T20:12:29.119Z,24.06
2018-08-28T20:17:32.634Z,24.07
2018-08-28T20:22:36.073Z,24.03
2018-08-28T20:27:39.669Z,24.01
2018-08-28T20:32:43.179Z,24.00
2018-08-28T20:37:46.594Z,24.03
2018-08-28T20:42:50.087Z,23.98
2018-08-28T20:47:53.765Z,24.02
2018-08-28T20:52:57.213Z,24.01
2018-08-28T20:58:00.787Z,23.98
2018-08-28T21:03:04.879Z,23.96
2018-08-28T21:08:09.077Z,23.91
2018-08-28T21:13:12.661Z,23.87
2018-08-28T21:18:16.227Z,23.88
2018-08-28T21:23:19.730Z,23.88
2018-08-28T21:28:23.359Z,23.90
2018-08-28T21:33:27.005Z,23.81
2018-08-28T21:38:30.746Z,23.84
2018-08-28T21:43:34.692Z,23.87
2018-08-28T21:48:38.217Z,23.86
2018-08-28T21:53:41.642Z,23.85
2018-08-28T21:58:45.084Z,23.82
2018-08-28T22:03:48.586Z,23.81
2018-08-28T22:08:52.076Z,23.84
2018-08-28T22:13:55.727Z,23.78
2018-08-28T22:18:59.863Z,23.82
2018-08-28T22:24:03.353Z,23.79
2018-08-28T22:29:06.779Z,23.82
2018-08-28T22:34:10.410Z,23.75
2018-08-28T22:39:13.916Z,23.75
2018-08-28T22:44:17.436Z,23.80
2018-08-28T22:49:21.026Z,23.77
2018-08-28T22:54:24.513Z,23.77
2018-08-28T22:59:27.901Z,23.78
2018-08-28T23:04:31.601Z,23.74
2018-08-28T23:09:35.010Z,23.74
2018-08-28T23:14:38.408Z,23.75
2018-08-28T23:19:41.842Z,23.76
2018-08-28T23:24:45.355Z,23.74
2018-08-28T23:29:48.809Z,23.72
2018-08-28T23:34:52.242Z,23.71
2018-08-28T23:39:55.700Z,23.70
2018-08-28T23:44:59.163Z,23.69
2018-08-28T23:50:02.656Z,23.66
2018-08-28T23:55:06.169Z,23.66
